Time;durP1;ratioP1;P1;durP2;ratioP2;P2;SDS_P1;SDS_P2;PMS_P1;PMS_P2;Temp;Humidity;BMP_temperature;BMP_pressure;BME280_temperature;BME280_humidity;BME280_pressure;Samples;Min_cycle;Max_cycle;Signal;HPM_P1;HPM_P2
2022/11/11 00:00:57;;;;;;;1.73;1.63;;;8.80;99.90;;;;;;5071569;28;20063;-75
2022/11/11 00:03:23;;;;;;;2.22;2.03;;;;;;;;;;5071774;28;20277;-75
2022/11/11 00:05:49;;;;;;;1.55;1.45;;;;;;;;;;5068564;28;20028;-75
2022/11/11 00:08:15;;;;;;;2.80;2.60;;;;;;;;;;5071552;28;20032;-74
2022/11/11 00:10:41;;;;;;;2.03;1.90;;;;;;;;;;5071672;28;20074;-75
2022/11/11 00:13:09;;;;;;;1.25;1.15;;;8.80;99.90;;;;;;5070433;28;20475;-75
2022/11/11 00:15:38;;;;;;;2.67;2.47;;;8.70;99.90;;;;;;5067516;28;20037;-75
2022/11/11 00:26:35;;;;;;;0.73;0.73;;;8.60;99.90;;;;;;5064780;28;20090;-74
2022/11/11 00:29:01;;;;;;;2.63;2.43;;;;;;;;;;5071548;28;20468;-74
2022/11/11 00:31:27;;;;;;;1.13;1.13;;;8.30;99.90;;;;;;5071908;28;20074;-74
2022/11/11 00:33:53;;;;;;;1.37;1.27;;;8.60;99.90;;;;;;5071716;28;20082;-75
2022/11/11 00:36:18;;;;;;;0.90;0.90;;;8.60;99.90;;;;;;5056054;28;20400;-74
2022/11/11 00:38:44;;;;;;;1.53;1.43;;;8.60;99.90;;;;;;5052054;28;20029;-74
2022/11/11 00:41:15;;;;;;;3.03;2.73;;;8.50;99.90;;;;;;5066543;28;20052;-76
2022/11/11 00:43:41;;;;;;;2.25;1.48;;;;;;;;;;5069900;28;20028;-73
2022/11/11 00:51:46;;;;;;;1.58;1.48;;;8.30;99.90;;;;;;5071578;28;20038;-75
2022/11/11 00:54:12;;;;;;;1.17;1.17;;;9.00;99.90;;;;;;5070104;28;20454;-74
2022/11/11 00:56:38;;;;;;;3.03;2.83;;;9.10;99.90;;;;;;5071287;28;20086;-74
2022/11/11 00:59:08;;;;;;;0.80;0.80;;;8.70;99.90;;;;;;5069780;28;20020;-76
2022/11/11 01:01:35;;;;;;;0.75;0.75;;;8.40;99.90;;;;;;5070935;28;20055;-75
2022/11/11 01:04:01;;;;;;;0.80;0.80;;;8.90;99.90;;;;;;5067601;28;20081;-76
2022/11/11 01:06:27;;;;;;;2.23;2.13;;;8.60;99.90;;;;;;5050415;28;20116;-76
2022/11/11 01:08:53;;;;;;;1.30;1.20;;;;;;;;;;5049734;28;20051;-74
2022/11/11 01:11:22;;;;;;;2.07;1.67;;;8.60;99.90;;;;;;5071284;28;20747;-75
2022/11/11 01:13:48;;;;;;;5.72;1.58;;;8.90;99.90;;;;;;5070163;28;20029;-75
2022/11/11 01:16:22;;;;;;;2.03;1.38;;;8.50;99.90;;;;;;5070577;28;20104;-75
2022/11/11 01:18:48;;;;;;;0.57;0.57;;;8.20;99.90;;;;;;5061768;28;20025;-75
2022/11/11 01:21:16;;;;;;;;;;;8.70;99.90;;;;;;5051295;28;20531;-75
2022/11/11 01:23:47;;;;;;;0.93;0.93;;;8.70;99.90;;;;;;5049190;28;19908;-74
2022/11/11 01:26:17;;;;;;;1.83;1.73;;;8.80;99.90;;;;;;5050448;28;20044;-74
2022/11/11 01:28:43;;;;;;;0.70;0.70;;;8.20;99.90;;;;;;5049063;28;20021;-77
2022/11/11 01:31:12;;;;;;;1.67;1.58;;;8.80;99.90;;;;;;5050706;28;20366;-74
2022/11/11 01:33:39;;;;;;;1.25;1.17;;;8.40;99.90;;;;;;5050157;28;20060;-74
2022/11/11 01:36:13;;;;;;;0.47;0.47;;;8.70;99.90;;;;;;5050258;28;20063;-74
2022/11/11 01:38:41;;;;;;;0.57;0.57;;;9.10;99.90;;;;;;5051416;28;20439;-74
2022/11/11 01:43:52;;;;;;;1.38;1.27;;;8.80;99.90;;;;;;5050498;28;20120;-74
2022/11/11 01:46:31;;;;;;;1.08;1.08;;;8.80;99.90;;;;;;5060240;28;20039;-74
2022/11/11 01:49:20;;;;;;;0.30;0.30;;;9.10;99.90;;;;;;5063481;28;20029;-75
2022/11/11 01:52:04;;;;;;;0.55;0.55;;;8.80;99.90;;;;;;5049264;28;20435;-74
2022/11/11 01:55:02;;;;;;;0.40;0.40;;;8.80;99.90;;;;;;5050388;28;20491;-73
2022/11/11 01:57:39;;;;;;;1.17;1.07;;;8.90;99.90;;;;;;5052753;28;20442;-76
2022/11/11 02:00:10;;;;;;;;;;;8.80;99.90;;;;;;5070010;28;20021;-74
2022/11/11 02:02:56;;;;;;;0.55;0.55;;;8.70;99.90;;;;;;5068305;28;19955;-74
2022/11/11 02:05:42;;;;;;;0.35;0.35;;;8.80;99.90;;;;;;5052491;28;20056;-73
2022/11/11 02:08:30;;;;;;;0.28;0.28;;;8.80;99.90;;;;;;5049167;28;20379;-76
2022/11/11 02:11:11;;;;;;;0.40;0.40;;;8.70;99.90;;;;;;5049518;28;20480;-75
2022/11/11 02:16:24;;;;;;;0.60;0.60;;;9.30;99.90;;;;;;5070859;28;20119;-74
2022/11/11 02:18:50;;;;;;;0.60;0.60;;;8.90;99.90;;;;;;5068795;28;20033;-74
2022/11/11 02:21:32;;;;;;;0.77;0.77;;;9.40;99.90;;;;;;5048536;28;20045;-76
2022/11/11 02:24:08;;;;;;;0.45;0.45;;;9.30;99.90;;;;;;5048712;28;20037;-75
2022/11/11 02:26:36;;;;;;;0.77;0.77;;;8.90;99.90;;;;;;5050482;28;20108;-74
2022/11/11 02:29:07;;;;;;;1.17;1.15;;;9.10;99.90;;;;;;5065312;28;20024;-74
2022/11/11 02:31:33;;;;;;;0.30;0.30;;;8.80;99.90;;;;;;5072005;28;20032;-74
2022/11/11 02:33:59;;;;;;;0.30;0.30;;;;;;;;;;5070942;28;20054;-74
2022/11/11 02:36:25;;;;;;;0.37;0.37;;;;;;;;;;5053497;28;20044;-74
2022/11/11 02:38:51;;;;;;;1.05;1.05;;;;;;;;;;5053479;28;20033;-74
2022/11/11 02:44:04;;;;;;;3.03;2.28;;;8.60;99.90;;;;;;5064589;28;20051;-74
2022/11/11 02:46:30;;;;;;;0.68;0.68;;;;;;;;;;5071930;28;20428;-74
2022/11/11 02:48:56;;;;;;;1.27;1.20;;;;;;;;;;5073166;28;20116;-76
2022/11/11 02:51:22;;;;;;;0.40;0.40;;;;;;;;;;5053943;28;20495;-76
2022/11/11 02:53:47;;;;;;;0.70;0.70;;;8.60;99.90;;;;;;5052001;28;20300;-76
2022/11/11 02:57:05;;;;;;;1.17;1.10;;;;;;;;;;5051600;28;20285;-73
2022/11/11 02:58:59;;;;;;;1.02;1.02;;;;;;;;;;5053827;28;20538;-73
2022/11/11 03:01:25;;;;;;;0.55;0.55;;;;;;;;;;5052283;28;20048;-75
2022/11/11 03:03:51;;;;;;;0.40;0.40;;;8.60;99.90;;;;;;5052837;28;20037;-74
2022/11/11 03:06:16;;;;;;;1.10;0.93;;;8.80;99.90;;;;;;5053660;28;20036;-74
2022/11/11 03:08:42;;;;;;;1.47;1.37;;;;;;;;;;5052754;28;20025;-75
2022/11/11 03:11:08;;;;;;;0.60;0.60;;;;;;;;;;5052759;28;20349;-75
2022/11/11 03:13:34;;;;;;;0.50;0.50;;;;;;;;;;5054721;28;20636;-73
2022/11/11 03:16:00;;;;;;;0.73;0.73;;;;;;;;;;5072625;28;20112;-74
2022/11/11 03:18:26;;;;;;;0.30;0.30;;;8.70;99.90;;;;;;5071317;28;20123;-74
2022/11/11 03:21:04;;;;;;;1.30;1.07;;;;;;;;;;5070529;28;20123;-74
2022/11/11 03:23:30;;;;;;;0.63;0.63;;;8.50;99.90;;;;;;5072305;28;20454;-75
2022/11/11 03:25:55;;;;;;;0.83;0.83;;;;;;;;;;5072407;28;20021;-73
2022/11/11 03:28:23;;;;;;;0.60;0.60;;;9.30;99.90;;;;;;5071219;28;20082;-73
2022/11/11 03:30:49;;;;;;;1.10;1.05;;;9.00;99.90;;;;;;5051130;28;20423;-74
2022/11/11 03:33:17;;;;;;;0.90;0.90;;;8.80;99.90;;;;;;5051538;28;20033;-75
2022/11/11 03:35:43;;;;;;;0.40;0.40;;;9.00;99.90;;;;;;5057254;28;20696;-74
2022/11/11 03:38:44;;;;;;;1.15;1.02;;;9.00;99.90;;;;;;5070710;28;20035;-73
2022/11/11 03:41:03;;;;;;;0.70;0.65;;;9.00;99.90;;;;;;5071881;28;20126;-73
2022/11/11 03:43:31;;;;;;;1.23;1.13;;;9.00;99.90;;;;;;5072157;28;20207;-74
2022/11/11 03:45:59;;;;;;;0.30;0.30;;;8.70;99.90;;;;;;5050945;28;20036;-74
2022/11/11 03:48:26;;;;;;;2.42;2.28;;;9.40;99.90;;;;;;5050721;28;20392;-73
2022/11/11 03:50:52;;;;;;;1.58;1.48;;;8.60;99.90;;;;;;5057968;28;20021;-74
2022/11/11 03:53:19;;;;;;;1.77;1.67;;;9.20;99.90;;;;;;5070806;28;20085;-76
2022/11/11 03:55:45;;;;;;;4.38;1.75;;;10.10;99.90;;;;;;5071060;28;20040;-75
2022/11/11 03:58:12;;;;;;;4.85;2.53;;;9.10;99.90;;;;;;5070408;28;20143;-74
2022/11/11 04:00:38;;;;;;;0.50;0.50;;;;;;;;;;5054462;28;20029;-75
2022/11/11 04:11:43;;;;;;;0.70;0.70;;;9.10;99.90;;;;;;5071623;28;20078;-75
2022/11/11 04:16:57;;;;;;;2.63;1.73;;;;;;;;;;5051825;28;20137;-74
2022/11/11 04:22:07;;;;;;;0.60;0.60;;;;;;;;;;5051996;28;20396;-74
2022/11/11 04:27:18;;;;;;;1.10;0.98;;;9.00;99.90;;;;;;5051414;28;20284;-74
2022/11/11 04:29:46;;;;;;;;;;;9.10;99.90;;;;;;5053590;28;20071;-74
2022/11/11 04:35:04;;;;;;;0.60;0.60;;;9.10;99.90;;;;;;5071242;28;20040;-75
2022/11/11 04:37:32;;;;;;;1.00;1.00;;;9.40;99.90;;;;;;5057023;28;20110;-74
2022/11/11 04:42:42;;;;;;;0.40;0.40;;;;;;;;;;5051754;28;20106;-75
2022/11/11 04:45:32;;;;;;;2.35;2.15;;;9.20;99.90;;;;;;5055405;28;20024;-74
2022/11/11 04:48:25;;;;;;;1.13;1.10;;;9.50;99.90;;;;;;5069596;28;20039;-75
2022/11/11 04:50:50;;;;;;;2.38;1.38;;;9.40;99.90;;;;;;5069790;28;20492;-74
2022/11/11 04:53:16;;;;;;;2.73;2.53;;;9.20;99.90;;;;;;5050855;28;20062;-74
2022/11/11 04:58:33;;;;;;;2.53;2.35;;;9.10;99.90;;;;;;5051383;28;20079;-74
2022/11/11 05:00:59;;;;;;;1.25;1.20;;;9.20;99.90;;;;;;5050109;28;20404;-73
2022/11/11 05:03:25;;;;;;;4.60;1.20;;;8.80;99.90;;;;;;5050483;28;20376;-74
2022/11/11 05:08:57;;;;;;;2.42;2.28;;;8.90;99.90;;;;;;5051113;28;20511;-74
2022/11/11 05:11:30;;;;;;;2.33;1.90;;;9.40;99.90;;;;;;5049842;28;20029;-75
2022/11/11 05:22:21;;;;;;;2.30;1.60;;;;;;;;;;5064264;28;20420;-74
2022/11/11 05:27:34;;;;;;;0.95;0.95;;;9.20;99.90;;;;;;5051821;28;20319;-74
2022/11/11 05:30:00;;;;;;;1.70;1.25;;;9.50;99.90;;;;;;5050883;28;20021;-73
2022/11/11 05:32:26;;;;;;;1.37;1.27;;;;;;;;;;5066796;28;20389;-74
2022/11/11 05:34:52;;;;;;;1.57;1.47;;;8.80;99.90;;;;;;5070440;28;20020;-73
2022/11/11 05:37:18;;;;;;;1.02;0.80;;;9.40;99.90;;;;;;5064885;28;20029;-74
2022/11/11 05:39:44;;;;;;;3.33;3.03;;;;;;;;;;5049620;28;20044;-74
2022/11/11 05:42:13;;;;;;;1.33;1.20;;;8.80;99.90;;;;;;5050579;28;20056;-74
2022/11/11 05:44:39;;;;;;;2.15;1.48;;;10.30;99.90;;;;;;5049533;28;20808;-74
2022/11/11 05:47:05;;;;;;;1.17;1.07;;;9.00;99.90;;;;;;5063540;28;20025;-74
2022/11/11 05:49:31;;;;;;;6.67;1.63;;;;;;;;;;5069490;28;20468;-75
2022/11/11 05:52:00;;;;;;;2.75;2.08;;;;;;;;;;5070701;28;20028;-74
2022/11/11 05:54:25;;;;;;;1.52;1.42;;;9.50;99.90;;;;;;5050935;28;20503;-75
2022/11/11 05:56:51;;;;;;;1.60;1.50;;;8.60;99.90;;;;;;5050361;28;20021;-74
2022/11/11 05:59:17;;;;;;;0.93;0.93;;;;;;;;;;5051048;28;20090;-73
2022/11/11 06:01:43;;;;;;;0.80;0.80;;;9.00;99.90;;;;;;5057963;28;20276;-76
2022/11/11 06:04:09;;;;;;;0.77;0.77;;;;;;;;;;5074346;28;20107;-74
2022/11/11 06:06:38;;;;;;;2.58;2.42;;;9.30;99.90;;;;;;5072602;28;20059;-74
2022/11/11 06:09:04;;;;;;;2.25;1.98;;;9.40;99.90;;;;;;5052638;28;20123;-75
2022/11/11 06:11:30;;;;;;;0.95;0.95;;;9.40;99.90;;;;;;5054566;28;20025;-74
2022/11/11 06:13:56;;;;;;;1.77;1.65;;;9.30;99.90;;;;;;5054849;28;20047;-74
2022/11/11 06:16:22;;;;;;;0.83;0.83;;;9.10;99.90;;;;;;5056373;28;20029;-75
2022/11/11 06:18:49;;;;;;;0.40;0.40;;;8.80;99.90;;;;;;5074217;28;20040;-74
2022/11/11 06:21:15;;;;;;;1.98;1.88;;;;;;;;;;5073661;28;20040;-74
2022/11/11 06:23:41;;;;;;;1.77;1.67;;;;;;;;;;5071960;28;20422;-75
2022/11/11 06:26:13;;;;;;;1.58;1.48;;;;;;;;;;5072610;28;20428;-75
2022/11/11 06:28:47;;;;;;;0.85;0.85;;;9.50;99.90;;;;;;5074225;28;20029;-74
2022/11/11 06:31:15;;;;;;;1.30;1.25;;;9.50;99.90;;;;;;5072500;28;20082;-75
2022/11/11 06:33:41;;;;;;;6.13;3.10;;;9.50;99.90;;;;;;5052802;28;20033;-74
2022/11/11 06:36:08;;;;;;;1.63;1.53;;;9.70;99.90;;;;;;5053932;28;20082;-74
2022/11/11 06:38:34;;;;;;;1.98;1.88;;;;;;;;;;5058355;28;20055;-75
2022/11/11 06:41:00;;;;;;;3.88;2.28;;;;;;;;;;5073605;28;20491;-76
2022/11/11 06:43:26;;;;;;;0.93;0.90;;;;;;;;;;5073862;28;20041;-75
2022/11/11 06:45:53;;;;;;;2.43;1.80;;;9.50;99.90;;;;;;5072101;28;20136;-75
2022/11/11 06:48:19;;;;;;;3.28;2.67;;;;;;;;;;5059265;28;20293;-74
2022/11/11 06:50:45;;;;;;;1.45;1.38;;;11.50;99.90;;;;;;5052165;28;20110;-74
2022/11/11 06:53:13;;;;;;;1.30;1.30;;;9.50;99.90;;;;;;5052621;28;20075;-74
2022/11/11 06:55:39;;;;;;;1.55;1.45;;;9.70;99.90;;;;;;5073515;28;20107;-74
2022/11/11 06:58:06;;;;;;;8.13;3.10;;;9.80;99.90;;;;;;5073561;28;20440;-74
2022/11/11 07:00:36;;;;;;;1.67;1.55;;;9.60;99.90;;;;;;5073307;28;20113;-74
2022/11/11 07:03:02;;;;;;;3.28;2.60;;;10.00;99.90;;;;;;5071446;28;20037;-74
2022/11/11 07:05:28;;;;;;;;;;;9.60;99.90;;;;;;5073287;28;20036;-75
2022/11/11 07:07:54;;;;;;;1.20;1.10;;;;;;;;;;5071330;28;20370;-73
2022/11/11 07:10:21;;;;;;;1.77;1.67;;;;;;;;;;5071327;28;20025;-72
2022/11/11 07:12:47;;;;;;;1.15;1.15;;;;;;;;;;5071411;28;20036;-74
2022/11/11 07:15:13;;;;;;;1.67;1.58;;;;;;;;;;5070761;28;20488;-75
2022/11/11 07:17:38;;;;;;;3.63;2.55;;;9.80;99.90;;;;;;5063677;28;20029;-74
2022/11/11 07:20:04;;;;;;;1.13;1.13;;;9.50;99.90;;;;;;5051446;28;20064;-77
2022/11/11 07:22:30;;;;;;;1.85;1.75;;;9.70;99.90;;;;;;5052639;28;20464;-74
2022/11/11 07:24:56;;;;;;;1.90;1.80;;;;;;;;;;5062574;28;20052;-75
2022/11/11 07:27:22;;;;;;;1.00;1.00;;;;;;;;;;5053911;28;20029;-74
2022/11/11 07:29:48;;;;;;;1.17;1.10;;;9.60;99.90;;;;;;5051447;28;20025;-75
2022/11/11 07:32:16;;;;;;;3.33;2.87;;;9.40;99.90;;;;;;5052502;28;20027;-74
2022/11/11 07:34:43;;;;;;;1.92;1.77;;;;;;;;;;5052302;28;20040;-74
2022/11/11 07:37:09;;;;;;;2.15;2.05;;;9.70;99.90;;;;;;5052953;28;20032;-73
2022/11/11 07:39:34;;;;;;;1.80;1.13;;;9.40;99.90;;;;;;5057110;28;20386;-74
2022/11/11 07:42:00;;;;;;;2.90;2.73;;;9.90;99.90;;;;;;5072304;28;20111;-75
2022/11/11 07:44:26;;;;;;;5.90;2.70;;;10.00;99.90;;;;;;5070836;28;20024;-74
2022/11/11 07:46:51;;;;;;;1.30;1.30;;;9.70;99.90;;;;;;5071066;28;20082;-76
2022/11/11 07:49:17;;;;;;;1.70;1.60;;;;;;;;;;5070651;28;20020;-73
2022/11/11 07:51:43;;;;;;;3.03;2.10;;;;;;;;;;5072432;28;20107;-75
2022/11/11 07:54:11;;;;;;;0.83;0.83;;;;;;;;;;5070787;28;20522;-75
2022/11/11 07:56:37;;;;;;;0.90;0.90;;;;;;;;;;5050881;28;20409;-74
2022/11/11 07:59:03;;;;;;;0.60;0.60;;;;;;;;;;5050696;28;20021;-75
2022/11/11 08:01:29;;;;;;;3.07;2.83;;;;;;;;;;5051668;28;20401;-74
2022/11/11 08:03:55;;;;;;;3.60;2.03;;;;;;;;;;5059233;28;20122;-74
2022/11/11 08:06:21;;;;;;;5.13;3.33;;;9.90;99.90;;;;;;5072126;28;20060;-75
2022/11/11 08:08:48;;;;;;;1.52;1.45;;;10.30;99.90;;;;;;5068454;28;20527;-74
2022/11/11 08:11:14;;;;;;;1.15;1.13;;;10.30;99.90;;;;;;5055976;28;20037;-74
2022/11/11 08:13:41;;;;;;;1.38;1.30;;;10.20;99.90;;;;;;5052296;28;20448;-74
2022/11/11 08:16:11;;;;;;;7.28;1.40;;;10.20;99.90;;;;;;5054654;28;20029;-68
2022/11/11 08:18:37;;;;;;;3.35;2.58;;;9.90;99.90;;;;;;5059249;28;20341;-73
2022/11/11 08:21:04;;;;;;;1.73;1.63;;;10.50;99.90;;;;;;5060508;28;20143;-72
2022/11/11 08:23:33;;;;;;;5.63;3.30;;;9.90;99.90;;;;;;5067208;28;20037;-72
2022/11/11 08:26:00;;;;;;;1.83;1.73;;;10.60;99.90;;;;;;5062299;28;20476;-72
2022/11/11 08:28:28;;;;;;;1.08;1.08;;;10.20;99.90;;;;;;5069257;28;20372;-73
2022/11/11 08:30:54;;;;;;;0.63;0.63;;;;;;;;;;5063830;28;20024;-72
2022/11/11 08:33:20;;;;;;;2.17;2.00;;;9.80;99.90;;;;;;5056452;28;20021;-71
2022/11/11 08:35:47;;;;;;;4.00;2.95;;;;;;;;;;5059839;28;20281;-71
2022/11/11 08:38:13;;;;;;;4.20;1.87;;;;;;;;;;5055795;28;20468;-71
2022/11/11 08:40:38;;;;;;;2.22;2.13;;;10.40;99.90;;;;;;5058715;28;20282;-70
2022/11/11 08:43:04;;;;;;;1.13;1.00;;;;;;;;;;5051479;28;20392;-71
2022/11/11 08:45:30;;;;;;;1.93;1.80;;;;;;;;;;5054764;28;20090;-72
2022/11/11 08:47:56;;;;;;;0.93;0.93;;;;;;;;;;5047417;28;20378;-71
2022/11/11 08:50:22;;;;;;;1.00;1.00;;;;;;;;;;5053954;28;20041;-70
2022/11/11 08:52:50;;;;;;;3.97;3.03;;;10.00;99.90;;;;;;5050404;28;20266;-75
2022/11/11 08:55:16;;;;;;;9.73;2.40;;;;;;;;;;5065132;28;20291;-74
2022/11/11 08:57:42;;;;;;;0.63;0.63;;;10.50;99.90;;;;;;5055376;28;20087;-77
2022/11/11 09:00:08;;;;;;;1.53;1.43;;;11.70;99.90;;;;;;5056770;28;20029;-74
2022/11/11 09:02:34;;;;;;;2.58;1.73;;;11.40;99.90;;;;;;5050945;28;20441;-75
2022/11/11 09:05:01;;;;;;;2.33;2.22;;;11.30;99.90;;;;;;5056022;28;20484;-74
2022/11/11 09:07:27;;;;;;;2.58;2.08;;;;;;;;;;5055274;28;20057;-73
2022/11/11 09:09:53;;;;;;;4.32;3.20;;;;;;;;;;5053015;28;20044;-73
2022/11/11 09:12:19;;;;;;;1.53;1.43;;;;;;;;;;5051144;28;20029;-73
2022/11/11 09:14:45;;;;;;;2.95;2.33;;;11.00;99.90;;;;;;5053459;28;20752;-74
2022/11/11 09:17:11;;;;;;;0.53;0.53;;;;;;;;;;5064415;28;20028;-72
2022/11/11 09:19:37;;;;;;;4.82;1.90;;;;;;;;;;5050286;28;20487;-73
2022/11/11 09:22:03;;;;;;;2.53;0.73;;;11.40;99.90;;;;;;5055008;28;20064;-73
2022/11/11 09:24:28;;;;;;;1.03;1.03;;;11.50;99.90;;;;;;5054652;28;20518;-72
2022/11/11 09:26:54;;;;;;;2.10;1.83;;;10.80;99.90;;;;;;5054993;28;20067;-72
2022/11/11 09:29:19;;;;;;;0.70;0.70;;;10.80;99.90;;;;;;5063058;28;20079;-72
2022/11/11 09:31:45;;;;;;;2.13;1.97;;;10.60;99.90;;;;;;5061705;28;20059;-74
2022/11/11 09:34:12;;;;;;;1.77;1.67;;;10.70;99.90;;;;;;5053557;28;20049;-72
2022/11/11 09:36:37;;;;;;;0.90;0.90;;;11.10;99.90;;;;;;5050571;28;20483;-74
2022/11/11 09:39:03;;;;;;;2.70;2.17;;;11.50;99.90;;;;;;5057541;28;20040;-73
2022/11/11 09:41:55;;;;;;;1.00;1.00;;;11.70;99.90;;;;;;5060636;28;20111;-73
2022/11/11 09:45:05;;;;;;;1.70;1.60;;;11.40;99.90;;;;;;5068010;28;20504;-73
2022/11/11 09:47:31;;;;;;;0.75;0.75;;;11.70;99.90;;;;;;5062956;28;20569;-73
2022/11/11 09:50:16;;;;;;;2.67;2.33;;;11.90;99.90;;;;;;5060630;28;20029;-72
2022/11/11 09:53:12;;;;;;;0.93;0.93;;;11.70;99.90;;;;;;5057279;28;20451;-73
2022/11/11 09:55:50;;;;;;;1.95;1.80;;;11.90;99.90;;;;;;5066885;28;20028;-72
2022/11/11 09:58:18;;;;;;;0.60;0.60;;;11.50;99.90;;;;;;5055401;28;20069;-73
2022/11/11 10:00:47;;;;;;;1.77;1.67;;;11.50;99.90;;;;;;5056499;28;20037;-73
2022/11/11 10:03:21;;;;;;;3.08;2.85;;;11.30;99.90;;;;;;5054541;28;20503;-73
2022/11/11 10:06:07;;;;;;;1.98;1.85;;;11.50;99.90;;;;;;5055016;28;20325;-73
2022/11/11 10:08:41;;;;;;;2.28;2.08;;;10.90;99.90;;;;;;5063844;28;20017;-74
2022/11/11 10:11:21;;;;;;;4.10;2.35;;;11.30;99.90;;;;;;5065150;28;20472;-72
2022/11/11 10:13:47;;;;;;;1.92;1.77;;;;;;;;;;5066640;28;20129;-73
2022/11/11 10:16:50;;;;;;;3.50;3.13;;;11.30;99.90;;;;;;5056023;28;20528;-73
2022/11/11 10:19:41;;;;;;;1.58;1.48;;;11.00;99.90;;;;;;5072422;28;20277;-73
2022/11/11 10:22:18;;;;;;;4.35;2.72;;;10.80;99.90;;;;;;5054098;28;20040;-73
2022/11/11 10:24:47;;;;;;;;;;;12.00;99.90;;;;;;5057617;28;20424;-73
2022/11/11 10:27:17;;;;;;;0.80;0.80;;;11.10;99.90;;;;;;5055773;28;20307;-73
2022/11/11 10:29:43;;;;;;;2.35;2.15;;;11.70;99.90;;;;;;5057020;28;20032;-72
2022/11/11 10:32:24;;;;;;;2.10;2.00;;;10.70;99.90;;;;;;5060707;28;20375;-73
2022/11/11 10:34:50;;;;;;;1.95;1.80;;;11.20;99.90;;;;;;5054275;28;20516;-73
2022/11/11 10:37:23;;;;;;;1.63;1.52;;;11.30;99.90;;;;;;5058934;28;20431;-72
2022/11/11 10:40:23;;;;;;;0.95;0.95;;;10.90;99.90;;;;;;5056157;28;20050;-73
2022/11/11 10:42:49;;;;;;;4.55;1.95;;;10.60;99.90;;;;;;5057269;28;20032;-74
2022/11/11 10:45:50;;;;;;;3.40;3.10;;;11.40;99.90;;;;;;5055266;28;20029;-70
2022/11/11 10:48:42;;;;;;;2.00;1.83;;;11.60;99.90;;;;;;5052625;28;20033;-72
2022/11/11 10:51:07;;;;;;;0.90;0.90;;;11.10;99.90;;;;;;5057745;28;20040;-73
2022/11/11 10:54:01;;;;;;;1.27;1.17;;;11.30;99.90;;;;;;5063071;28;20029;-73
2022/11/11 10:56:52;;;;;;;1.67;1.58;;;10.80;99.90;;;;;;5061105;28;20537;-72
2022/11/11 10:59:48;;;;;;;1.77;1.08;;;11.00;99.90;;;;;;5056649;28;20567;-69
2022/11/11 11:02:14;;;;;;;0.77;0.77;;;;;;;;;;5055111;28;20060;-67
2022/11/11 11:04:40;;;;;;;0.93;0.93;;;;;;;;;;5050849;28;20032;-71
2022/11/11 11:07:08;;;;;;;0.93;0.93;;;11.50;99.90;;;;;;5061998;28;20277;-72
2022/11/11 11:09:40;;;;;;;1.95;1.42;;;10.90;99.90;;;;;;5071128;28;20059;-73
2022/11/11 11:12:13;;;;;;;4.10;3.55;;;11.70;99.90;;;;;;5053319;28;20105;-72
2022/11/11 11:14:43;;;;;;;0.60;0.60;;;11.30;99.90;;;;;;5057569;28;20033;-73
2022/11/11 11:17:29;;;;;;;1.50;1.40;;;11.70;99.90;;;;;;5058486;28;20475;-74
2022/11/11 11:20:18;;;;;;;1.25;1.23;;;11.30;99.90;;;;;;5059468;28;20036;-73
2022/11/11 11:22:56;;;;;;;1.05;1.05;;;11.50;99.90;;;;;;5062511;28;20020;-73
2022/11/11 11:25:22;;;;;;;2.28;2.15;;;11.20;99.90;;;;;;5053710;28;20025;-73
2022/11/11 11:27:50;;;;;;;1.23;1.20;;;11.80;99.90;;;;;;5062062;28;20071;-71
2022/11/11 11:30:18;;;;;;;3.80;1.60;;;11.20;99.90;;;;;;5054105;28;20044;-71
2022/11/11 11:33:06;;;;;;;2.92;2.70;;;11.60;99.90;;;;;;5061051;28;20029;-70
2022/11/11 11:35:38;;;;;;;2.35;2.15;;;11.60;99.90;;;;;;5063419;28;20058;-69
2022/11/11 11:38:06;;;;;;;1.80;1.58;;;11.30;99.90;;;;;;5062813;28;20032;-74
2022/11/11 11:40:47;;;;;;;0.77;0.77;;;11.90;99.90;;;;;;5057589;28;20085;-74
2022/11/11 11:43:30;;;;;;;1.77;1.67;;;11.90;99.90;;;;;;5055455;28;20024;-74
2022/11/11 11:46:00;;;;;;;0.93;0.93;;;12.00;99.90;;;;;;5066635;28;20044;-73
2022/11/11 11:48:41;;;;;;;0.75;0.75;;;11.80;99.90;;;;;;5063126;28;20411;-74
2022/11/11 11:51:19;;;;;;;1.27;1.17;;;12.50;99.90;;;;;;5061682;28;20086;-73
2022/11/11 11:54:03;;;;;;;1.35;1.00;;;11.80;99.90;;;;;;5059407;28;20431;-72
2022/11/11 11:56:38;;;;;;;1.17;1.10;;;12.30;99.90;;;;;;5053801;28;20025;-67
2022/11/11 11:59:14;;;;;;;1.75;1.63;;;12.00;99.90;;;;;;5059471;28;20033;-69
2022/11/11 12:01:58;;;;;;;0.90;0.90;;;12.90;99.90;;;;;;5061642;28;20053;-66
2022/11/11 12:04:55;;;;;;;2.83;2.47;;;12.00;99.90;;;;;;5058109;28;20032;-70
2022/11/11 12:07:45;;;;;;;3.67;2.33;;;12.50;99.90;;;;;;5055750;28;20047;-69
2022/11/11 12:10:21;;;;;;;1.05;1.02;;;11.90;99.90;;;;;;5058471;28;20368;-67
2022/11/11 12:12:57;;;;;;;0.95;0.95;;;12.30;99.90;;;;;;5061564;28;20031;-66
2022/11/11 12:15:58;;;;;;;1.27;0.80;;;12.50;99.90;;;;;;5052909;28;20037;-67
2022/11/11 12:18:46;;;;;;;2.83;1.77;;;12.30;99.90;;;;;;5053402;28;20449;-67
2022/11/11 12:21:17;;;;;;;4.22;2.75;;;12.20;99.90;;;;;;5059061;28;20083;-67
2022/11/11 12:23:52;;;;;;;1.13;1.02;;;11.90;99.90;;;;;;5054219;28;20056;-68
2022/11/11 12:26:41;;;;;;;1.67;1.58;;;11.90;99.90;;;;;;5060382;28;20060;-67
2022/11/11 12:29:41;;;;;;;0.60;0.60;;;11.50;99.90;;;;;;5059031;28;20044;-68
2022/11/11 12:32:50;;;;;;;0.80;0.80;;;11.70;99.90;;;;;;5070038;28;20028;-68
2022/11/11 12:35:16;;;;;;;0.85;0.85;;;;;;;;;;5062534;28;20036;-68
2022/11/11 12:38:21;;;;;;;1.73;1.63;;;11.60;99.90;;;;;;5050145;28;20599;-67
2022/11/11 12:41:02;;;;;;;0.82;0.82;;;11.20;99.90;;;;;;5069102;28;21053;-67
2022/11/11 12:43:53;;;;;;;0.82;0.82;;;11.50;99.90;;;;;;5056290;28;20412;-67
2022/11/11 12:46:40;;;;;;;0.45;0.45;;;11.60;99.90;;;;;;5051720;28;20506;-66
2022/11/11 12:49:18;;;;;;;0.50;0.50;;;11.70;99.90;;;;;;5055015;28;20029;-66
2022/11/11 12:51:44;;;;;;;3.30;2.38;;;11.50;99.90;;;;;;5071546;28;20067;-67
2022/11/11 12:54:41;;;;;;;0.73;0.73;;;11.70;99.90;;;;;;5053352;28;20064;-69
2022/11/11 12:57:22;;;;;;;0.40;0.40;;;11.90;99.90;;;;;;5054276;28;20478;-66
2022/11/11 13:00:03;;;;;;;2.72;1.55;;;11.10;99.90;;;;;;5055938;28;20348;-68
2022/11/11 13:03:06;;;;;;;0.43;0.43;;;11.80;99.90;;;;;;5056996;28;20056;-67
2022/11/11 13:05:43;;;;;;;0.82;0.82;;;12.20;99.90;;;;;;5064417;28;20037;-67
2022/11/11 13:08:33;;;;;;;0.70;0.70;;;11.70;99.90;;;;;;5067379;28;20024;-66
2022/11/11 13:11:08;;;;;;;0.65;0.65;;;11.70;99.90;;;;;;5052058;28;20341;-65
2022/11/11 13:14:09;;;;;;;0.60;0.60;;;11.20;99.90;;;;;;5051371;28;20043;-65
2022/11/11 13:16:34;;;;;;;0.73;0.73;;;11.10;99.90;;;;;;5052360;28;20032;-66
2022/11/11 13:19:04;;;;;;;1.57;1.47;;;11.70;99.90;;;;;;5052493;28;20032;-64
2022/11/11 13:21:48;;;;;;;0.50;0.50;;;12.00;99.90;;;;;;5054188;28;20025;-67
2022/11/11 13:24:19;;;;;;;0.90;0.90;;;11.70;99.90;;;;;;5061830;28;20071;-67
2022/11/11 13:26:53;;;;;;;1.65;1.55;;;11.50;99.90;;;;;;5055149;28;20094;-66
2022/11/11 13:29:43;;;;;;;1.83;1.65;;;11.40;99.90;;;;;;5064018;28;20058;-67
2022/11/11 13:32:12;;;;;;;1.48;1.38;;;11.10;99.90;;;;;;5054879;28;20041;-66
2022/11/11 13:34:40;;;;;;;1.55;1.27;;;11.50;99.90;;;;;;5049124;28;20028;-67
2022/11/11 13:37:09;;;;;;;1.15;1.10;;;11.70;99.90;;;;;;5055981;28;20550;-67
2022/11/11 13:39:46;;;;;;;0.80;0.80;;;11.10;99.90;;;;;;5053870;28;20023;-67
2022/11/11 13:42:22;;;;;;;0.82;0.82;;;12.00;99.90;;;;;;5056465;28;20060;-69
2022/11/11 13:44:54;;;;;;;1.55;1.45;;;11.60;99.90;;;;;;5057089;28;20040;-68
2022/11/11 13:47:36;;;;;;;0.70;0.70;;;11.60;99.90;;;;;;5067981;28;20021;-69
2022/11/11 13:50:11;;;;;;;1.30;1.25;;;11.00;99.90;;;;;;5068141;28;20035;-69
2022/11/11 13:52:52;;;;;;;0.90;0.90;;;11.60;99.90;;;;;;5049819;28;20033;-70
2022/11/11 13:55:41;;;;;;;2.63;1.95;;;11.10;99.90;;;;;;5059355;28;20052;-70
2022/11/11 13:58:27;;;;;;;1.83;1.73;;;11.30;99.90;;;;;;5068511;28;20074;-70
2022/11/11 14:01:08;;;;;;;0.73;0.73;;;10.60;99.90;;;;;;5060677;28;20033;-68
2022/11/11 14:03:35;;;;;;;2.13;1.92;;;10.90;99.90;;;;;;5063784;28;20094;-69
2022/11/11 14:06:13;;;;;;;1.60;1.52;;;11.00;99.90;;;;;;5058647;28;20085;-69
2022/11/11 14:08:45;;;;;;;1.20;1.17;;;11.30;99.90;;;;;;5056499;28;20461;-70
2022/11/11 14:11:25;;;;;;;2.33;2.15;;;11.50;99.90;;;;;;5059401;28;20028;-66
2022/11/11 14:13:53;;;;;;;1.17;1.10;;;11.50;99.90;;;;;;5051893;28;20071;-69
2022/11/11 14:16:34;;;;;;;1.25;0.68;;;11.20;99.90;;;;;;5050525;28;20040;-70
2022/11/11 14:19:19;;;;;;;1.65;1.40;;;10.70;99.90;;;;;;5050643;28;20123;-72
2022/11/11 14:21:56;;;;;;;0.40;0.40;;;10.50;99.90;;;;;;5056292;28;20033;-69
2022/11/11 14:24:39;;;;;;;0.68;0.68;;;11.40;99.90;;;;;;5062359;28;20329;-69
2022/11/11 14:27:08;;;;;;;0.70;0.70;;;10.70;99.90;;;;;;5064502;28;20155;-69
2022/11/11 14:29:38;;;;;;;0.90;0.90;;;11.00;99.90;;;;;;5059436;28;20373;-68
2022/11/11 14:32:33;;;;;;;0.30;0.30;;;10.50;99.90;;;;;;5059624;28;20029;-69
2022/11/11 14:35:02;;;;;;;0.45;0.45;;;11.40;99.90;;;;;;5064104;28;20087;-70
2022/11/11 14:37:37;;;;;;;0.88;0.88;;;10.90;99.90;;;;;;5056962;28;20091;-70
2022/11/11 14:40:08;;;;;;;0.55;0.55;;;10.60;99.90;;;;;;5059175;28;20037;-69
2022/11/11 14:42:34;;;;;;;0.93;0.93;;;11.10;99.90;;;;;;5061068;28;20032;-69